Latest Weather Observations for Merimbula

IDN60801

Issued at 1:03 pm EST Sunday 19 April 2015 (issued every 30 minutes, with the page automatically refreshed every 10 minutes)

About weather observations | Map of weather stations | Latest weather observations for NSW | Other Formats
Station Details ID: 069147 Name: MERIMBULA AIRPORT AWS Lat: -36.91 Lon: 149.90 Height: 1.5 m
Data from the previous 72 hours. | See also: Recent months at Merimbula
Date/Time
EST
Temp
°C
App
Temp
°C
Dew
Point
Rel
Hum
%
Delta-T
°C
Wind Press
QNH
hPa
Press
MSL
hPa
Rain
since 9 am
mm
Dir
 
Spd
km/h
Gust
km/h
Spd
kts
Gust
kts
19/01:00pm 15.7 10.9 7.2 57 4.2 SW 22 35 12 19 1022.3 1022.3 0.0
19/12:30pm 15.4 11.8 6.7 56 4.2 SW 15 28 8 15 1022.1 1022.1 0.0
19/12:00pm 15.2 13.0 7.7 61 3.7 SW 9 17 5 9 1022.1 1022.1 0.0
19/11:30am 14.9 12.5 7.0 59 3.9 SW 9 15 5 8 1022.1 1022.1 0.0
19/11:00am 14.9 12.3 6.2 56 4.2 WSW 9 15 5 8 1021.8 1021.8 0.0
19/10:30am 14.4 12.3 5.7 56 4.1 SW 6 15 3 8 1021.6 1021.6 0.0
19/09:30am 13.7 11.1 6.3 61 3.5 SW 9 17 5 9 1021.0 1021.0 0.0
19/09:00am 13.4 10.1 6.5 63 3.3 WSW 13 22 7 12 1020.5 1020.5 10.2
19/08:30am 13.4 10.3 7.4 67 2.9 WSW 13 20 7 11 1020.0 1020.0 10.2
19/08:00am 13.4 11.1 7.6 68 2.8 SW 9 15 5 8 1019.4 1019.4 10.2
19/07:30am 12.9 9.0 7.1 68 2.8 SSW 17 26 9 14 1018.7 1018.7 10.2
19/07:00am 12.8 8.6 7.5 70 2.6 SW 19 32 10 17 1018.1 1018.1 10.2
19/06:30am 12.7 8.8 8.8 77 2.0 WSW 19 28 10 15 1017.3 1017.3 10.2
19/05:30am 12.6 10.5 9.6 82 1.5 SW 11 20 6 11 1016.2 1016.2 10.2
19/05:00am 12.9 10.5 10.1 83 1.4 SSW 13 20 7 11 1015.8 1015.8 10.2
19/04:30am 13.4 10.8 10.6 83 1.5 S 15 22 8 12 1015.4 1015.4 10.2
19/04:00am 13.6 11.6 11.5 87 1.1 S 13 20 7 11 1014.9 1014.9 10.2
19/03:30am 13.9 12.1 12.1 89 1.0 S 13 17 7 9 1014.3 1014.3 10.2
19/03:00am 13.6 12.7 12.5 93 0.6 SSW 9 11 5 6 1013.8 1013.8 10.2
19/02:30am 14.0 14.9 12.9 93 0.6 CALM 0 0 0 0 1013.8 1013.8 10.2
19/02:00am 14.3 15.2 13.0 92 0.7 CALM 0 0 0 0 1013.8 1013.8 10.2
19/01:54am 14.3 14.8 12.9 91 0.8 SE 2 7 1 4 1013.8 1013.8 10.2
19/01:39am 14.5 14.0 12.7 89 1.0 SW 7 11 4 6 1013.9 1013.9 10.2
19/01:30am 14.6 13.7 12.6 88 1.1 SW 9 13 5 7 1013.8 1013.8 9.6
19/01:00am 14.9 13.6 12.4 85 1.4 W 11 19 6 10 1013.6 1013.6 9.6
19/12:39am 15.3 16.1 13.7 90 0.9 SW 2 7 1 4 1013.4 1013.4 9.6
19/12:30am 15.3 15.1 13.7 90 0.9 S 7 13 4 7 1013.3 1013.3 9.6
19/12:21am 15.4 14.0 13.4 88 1.1 SSW 13 17 7 9 1013.1 1013.1 9.4
19/12:00am 16.0 13.7 14.0 88 1.1 SSW 19 28 10 15 1012.9 1012.9 9.0
 
Date/Time
EST
Temp
°C
App
Temp
°C
Dew
Point
Rel
Hum
%
Delta-T
°C
Wind Press
QNH
hPa
Press
MSL
hPa
Rain
since 9 am
mm
Dir
 
Spd
km/h
Gust
km/h
Spd
kts
Gust
kts
18/11:30pm 17.0 17.3 15.9 93 0.6 S 9 13 5 7 1012.8 1012.8 9.0
18/11:00pm 17.4 19.6 16.6 95 0.5 CALM 0 0 0 0 1012.3 1012.3 9.0
18/10:39pm 17.7 20.1 17.1 96 0.4 CALM 0 0 0 0 1012.1 1012.1 9.0
18/10:30pm 17.7 20.1 17.1 96 0.4 CALM 0 0 0 0 1011.5 1011.5 8.8
18/10:00pm 17.8 20.2 17.0 95 0.5 CALM 0 0 0 0 1011.4 1011.4 8.8
18/09:30pm 18.0 20.5 17.2 95 0.5 CALM 0 0 0 0 1011.5 1011.5 8.6
18/09:02pm 18.1 19.3 17.3 95 0.5 WNW 7 9 4 5 1012.1 1012.1 7.8
18/09:00pm 18.1 19.3 17.3 95 0.5 W 7 9 4 5 1012.1 1012.1 7.6
18/08:30pm 18.2 20.7 17.2 94 0.6 CALM 0 0 0 0 1012.2 1012.2 5.0
18/08:27pm 18.2 20.7 17.2 94 0.6 CALM 0 0 0 0 1012.0 1012.0 4.8
18/08:17pm 18.3 20.1 17.3 94 0.6 SSW 4 9 2 5 1011.8 1011.8 4.4
18/08:00pm 18.4 20.9 17.2 93 0.7 CALM 0 0 0 0 1011.8 1011.8 4.0
18/07:34pm 18.7 19.6 17.5 93 0.7 SSW 9 15 5 8 1011.8 1011.8 1.2
18/07:30pm 18.7 19.2 17.5 93 0.7 S 11 19 6 10 1011.4 1011.4 1.0
18/07:00pm 19.1 18.0 17.4 90 1.0 SSE 19 26 10 14 1010.8 1010.8 0.0
18/06:30pm 18.5 21.0 17.2 92 0.8 CALM 0 0 0 0 1010.3 1010.3 0.0
18/06:00pm 18.6 21.0 17.1 91 0.9 CALM 0 0 0 0 1009.5 1009.5 0.0
18/05:30pm 18.8 21.2 17.1 90 1.0 CALM 0 0 0 0 1009.5 1009.5 0.0
18/05:00pm 19.0 21.4 17.1 89 1.2 CALM 0 0 0 0 1009.6 1009.6 0.0
18/04:30pm 19.4 21.9 17.2 87 1.3 CALM 0 0 0 0 1009.6 1009.6 0.0
18/04:00pm 19.8 21.1 17.0 84 1.7 SW 6 9 3 5 1009.8 1009.8 0.0
18/03:30pm 20.1 21.3 17.3 84 1.7 SW 7 11 4 6 1009.5 1009.5 0.0
18/03:00pm 20.4 21.2 17.4 83 1.8 SSW 9 11 5 6 1009.5 1009.5 0.0
18/02:30pm 20.7 22.6 16.7 78 2.4 NW 2 7 1 4 1009.8 1009.8 0.0
18/02:00pm 20.1 22.7 17.5 85 1.6 CALM 0 6 0 3 1009.8 1009.8 0.0
18/01:30pm 20.1 22.7 17.5 85 1.6 CALM 0 0 0 0 1010.2 1010.2 0.0
18/01:00pm 20.0 22.5 17.2 84 1.7 CALM 0 0 0 0 1010.6 1010.6 0.0
18/12:30pm 19.6 21.8 16.4 82 1.9 CALM 0 0 0 0 1011.1 1011.1 0.0
18/12:00pm 19.2 20.9 16.2 83 1.8 NE 2 6 1 3 1012.0 1012.0 0.0
18/11:30am 19.2 19.6 16.2 83 1.8 NW 9 13 5 7 1012.2 1012.2 0.0
18/11:00am 19.0 18.5 16.0 83 1.8 NW 13 19 7 10 1012.4 1012.4 0.0
18/10:30am 19.1 21.5 16.9 87 1.3 CALM 0 7 0 4 1012.6 1012.6 0.0
18/10:00am 18.6 19.4 16.4 87 1.3 NNW 7 15 4 8 1012.8 1012.8 0.0
18/09:30am 18.3 18.7 16.3 88 1.2 NNW 9 13 5 7 1013.2 1013.2 0.0
18/09:00am 18.1 18.5 16.3 89 1.1 N 9 13 5 7 1013.5 1013.5 2.0
18/08:30am 17.8 18.6 16.3 91 0.9 N 7 9 4 5 1013.6 1013.6 2.0
18/08:00am 17.6 18.6 16.3 92 0.8 N 6 7 3 4 1013.5 1013.5 2.0
18/07:30am 17.3 18.0 16.0 92 0.8 NNE 7 9 4 5 1013.4 1013.4 2.0
18/07:00am 17.0 17.6 15.9 93 0.6 NW 7 11 4 6 1013.4 1013.4 1.8
18/06:30am 16.4 18.2 15.4 94 0.6 CALM 0 0 0 0 1013.3 1013.3 1.8
18/06:00am 15.9 17.5 14.8 93 0.6 CALM 0 0 0 0 1013.4 1013.4 1.8
18/05:30am 16.2 17.9 15.2 94 0.6 CALM 0 0 0 0 1013.2 1013.2 1.8
18/05:00am 16.2 17.9 15.1 93 0.6 CALM 0 0 0 0 1013.4 1013.4 1.8
18/04:30am 16.5 18.2 15.2 92 0.8 CALM 0 0 0 0 1013.8 1013.8 1.8
18/04:00am 16.8 18.5 15.3 91 0.9 CALM 0 0 0 0 1013.8 1013.8 1.8
18/03:30am 16.9 18.7 15.4 91 0.9 CALM 0 0 0 0 1013.9 1013.9 1.8
18/03:00am 16.9 18.7 15.6 92 0.8 CALM 0 0 0 0 1013.8 1013.8 1.8
18/02:30am 17.0 18.8 15.5 91 0.9 CALM 0 0 0 0 1014.3 1014.3 1.8
18/02:00am 16.8 18.7 15.7 93 0.6 CALM 0 0 0 0 1014.8 1014.8 1.8
18/01:30am 16.6 18.4 15.6 94 0.6 CALM 0 0 0 0 1015.2 1015.2 1.8
18/01:00am 16.6 18.4 15.6 94 0.6 CALM 0 0 0 0 1015.7 1015.7 1.8
18/12:30am 16.6 18.4 15.6 94 0.6 CALM 0 0 0 0 1015.8 1015.8 1.8
18/12:00am 16.7 18.6 15.7 94 0.6 CALM 0 0 0 0 1015.9 1015.9 1.8
 
Date/Time
EST
Temp
°C
App
Temp
°C
Dew
Point
Rel
Hum
%
Delta-T
°C
Wind Press
QNH
hPa
Press
MSL
hPa
Rain
since 9 am
mm
Dir
 
Spd
km/h
Gust
km/h
Spd
kts
Gust
kts
17/11:30pm 16.8 18.7 15.8 94 0.6 CALM 0 0 0 0 1016.4 1016.4 1.8
17/11:00pm 16.8 17.0 15.8 94 0.6 NNW 9 15 5 8 1016.8 1016.8 1.8
17/10:30pm 16.8 16.6 15.8 94 0.6 NW 11 15 6 8 1017.0 1017.0 1.8
17/10:00pm 16.7 18.6 15.7 94 0.6 CALM 0 0 0 0 1017.2 1017.2 1.6
17/09:30pm 16.9 18.9 16.1 95 0.5 CALM 0 0 0 0 1017.5 1017.5 1.6
17/09:00pm 16.5 18.3 15.5 94 0.6 CALM 0 0 0 0 1017.7 1017.7 1.6
17/08:30pm 16.5 18.3 15.5 94 0.6 CALM 0 0 0 0 1018.3 1018.3 1.6
17/08:00pm 16.6 18.4 15.6 94 0.6 CALM 0 0 0 0 1018.5 1018.5 1.4
17/07:30pm 16.8 18.7 15.8 94 0.6 CALM 0 0 0 0 1018.5 1018.5 1.2
17/07:00pm 17.0 19.0 16.0 94 0.6 CALM 0 0 0 0 1018.9 1018.9 1.2
17/06:30pm 17.1 19.1 16.0 93 0.6 CALM 0 0 0 0 1019.0 1019.0 1.0
17/06:00pm 17.1 17.3 15.8 92 0.8 NNW 9 13 5 7 1019.4 1019.4 1.0
17/05:41pm 17.0 17.3 15.9 93 0.6 N 9 15 5 8 1019.3 1019.3 1.0
17/05:33pm 17.0 17.3 15.9 93 0.6 N 9 13 5 7 1019.3 1019.3 1.0
17/05:30pm 17.0 17.6 15.9 93 0.6 NNW 7 13 4 7 1019.3 1019.3 1.0
17/05:17pm 17.0 17.6 15.9 93 0.6 NW 7 13 4 7 1019.5 1019.5 1.0
17/05:15pm 17.0 17.3 15.9 93 0.6 NW 9 13 5 7 1019.5 1019.5 1.0
17/05:00pm 16.9 17.7 15.8 93 0.6 NW 6 11 3 6 1019.5 1019.5 1.0
17/04:40pm 16.8 18.7 15.7 93 0.6 CALM 0 0 0 0 1019.5 1019.5 0.8
17/04:39pm 16.8 18.7 15.7 93 0.6 CALM 0 0 0 0 1019.5 1019.5 0.8
17/04:30pm 16.7 18.5 15.6 93 0.6 CALM 0 0 0 0 1019.4 1019.4 0.8
17/04:05pm 16.6 18.3 15.3 92 0.8 CALM 0 0 0 0 1019.7 1019.7 0.8
17/04:03pm 16.7 18.5 15.4 92 0.8 CALM 0 0 0 0 1019.7 1019.7 0.8
17/04:00pm 16.7 18.4 15.2 91 0.9 CALM 0 0 0 0 1019.8 1019.8 0.8
17/03:51pm 16.7 18.5 15.4 92 0.8 CALM 0 0 0 0 1020.0 1020.0 0.8
17/03:30pm 16.5 18.1 15.0 91 0.9 CALM 0 0 0 0 1020.5 1020.5 0.8
17/03:14pm 16.4 16.9 14.9 91 0.9 NNE 6 9 3 5 1020.7 1020.7 0.8
17/03:00pm 16.4 16.8 14.8 90 0.9 NNE 6 11 3 6 1020.8 1020.8 0.6
17/02:30pm 16.6 16.8 14.8 89 1.0 NNE 7 11 4 6 1020.9 1020.9 0.6
17/02:00pm 16.6 17.7 14.6 88 1.1 NNE 2 11 1 6 1021.4 1021.4 0.2
17/01:30pm 16.6 18.0 14.4 87 1.3 CALM 0 0 0 0 1021.8 1021.8 0.2
17/01:00pm 16.7 17.2 14.0 84 1.5 N 4 7 2 4 1022.4 1022.4 0.0
17/12:30pm 16.8 17.8 13.3 80 2.0 CALM 0 0 0 0 1023.1 1023.1 0.0
17/12:00pm 16.7 17.6 13.0 79 2.1 CALM 0 0 0 0 1023.7 1023.7 0.0
17/11:30am 16.5 17.4 12.8 79 2.1 CALM 0 0 0 0 1024.2 1024.2 0.0
17/11:00am 16.3 17.4 13.4 83 1.6 CALM 0 0 0 0 1024.7 1024.7 0.0
17/10:30am 15.9 16.8 13.0 83 1.6 CALM 0 0 0 0 1025.0 1025.0 0.0
17/10:00am 15.9 16.9 13.2 84 1.5 CALM 0 0 0 0 1025.2 1025.2 0.0
17/09:30am 15.5 16.1 13.0 85 1.4 W 2 7 1 4 1025.4 1025.4 0.0
17/09:00am 15.3 15.0 12.8 85 1.4 W 6 9 3 5 1025.7 1025.7 0.2
17/08:30am 15.0 14.6 12.9 87 1.2 W 7 11 4 6 1025.5 1025.5 0.2
17/08:00am 14.7 15.5 12.6 87 1.1 CALM 0 0 0 0 1025.4 1025.4 0.2
17/07:30am 14.5 13.9 12.4 87 1.1 W 7 9 4 5 1025.3 1025.3 0.2
17/07:00am 14.5 13.9 12.2 86 1.2 W 7 11 4 6 1025.0 1025.0 0.2
17/06:54am 14.6 14.0 12.3 86 1.3 W 7 9 4 5 1025.0 1025.0 0.2
17/06:30am 14.6 13.9 12.1 85 1.4 SW 7 11 4 6 1024.7 1024.7 0.2
17/06:24am 14.6 13.5 12.1 85 1.4 SSW 9 13 5 7 1024.7 1024.7 0.2
17/06:00am 14.6 15.2 11.9 84 1.4 CALM 0 0 0 0 1024.6 1024.6 0.2
17/05:30am 14.6 15.2 11.9 84 1.5 CALM 0 0 0 0 1024.1 1024.1 0.2
17/05:00am 14.8 15.7 13.0 89 1.0 CALM 0 0 0 0 1024.1 1024.1 0.2
17/04:30am 14.9 15.9 13.1 89 1.0 CALM 0 0 0 0 1023.9 1023.9 0.2
17/04:03am 15.0 15.9 13.0 88 1.1 CALM 0 0 0 0 1023.6 1023.6 0.2
17/04:00am 15.0 15.9 13.0 88 1.1 CALM 0 0 0 0 1023.6 1023.6 0.2
17/03:30am 14.9 15.7 12.6 86 1.3 CALM 0 0 0 0 1023.4 1023.4 0.2
17/03:00am 15.1 16.2 13.5 90 0.9 CALM 0 0 0 0 1023.4 1023.4 0.2
17/02:39am 15.2 16.3 13.4 89 1.0 CALM 0 0 0 0 1023.6 1023.6 0.2
17/02:30am 15.2 16.2 13.2 88 1.1 CALM 0 0 0 0 1023.8 1023.8 0.2
17/02:00am 15.5 16.5 13.2 86 1.3 CALM 0 0 0 0 1024.4 1024.4 0.2
17/01:30am 16.2 16.8 12.0 76 2.3 CALM 0 0 0 0 1025.0 1025.0 0.0
17/01:00am 16.3 15.7 11.7 74 2.5 SSE 6 11 3 6 1024.9 1024.9 0.0
17/12:30am 16.5 15.8 12.1 75 2.4 SSE 7 11 4 6 1024.7 1024.7 0.0
17/12:00am 16.6 15.9 11.9 74 2.6 S 7 11 4 6 1024.9 1024.9 0.0
 
Date/Time
EST
Temp
°C
App
Temp
°C
Dew
Point
Rel
Hum
%
Delta-T
°C
Wind Press
QNH
hPa
Press
MSL
hPa
Rain
since 9 am
mm
Dir
 
Spd
km/h
Gust
km/h
Spd
kts
Gust
kts
16/11:30pm 16.6 15.5 11.9 74 2.6 SSW 9 13 5 7 1025.2 1025.2 0.0
16/11:00pm 16.7 15.3 12.3 75 2.4 SSW 11 15 6 8 1025.0 1025.0 0.0
16/10:30pm 16.9 14.7 12.2 74 2.6 SSW 15 19 8 10 1024.9 1024.9 0.0
16/10:00pm 17.1 15.4 12.6 75 2.5 S 13 17 7 9 1024.6 1024.6 0.0
16/09:30pm 17.3 16.8 12.8 75 2.5 SSW 7 13 4 7 1024.6 1024.6 0.0
16/09:00pm 17.5 17.3 13.0 75 2.5 S 6 11 3 6 1024.4 1024.4 0.0
16/08:30pm 17.8 17.6 13.1 74 2.6 S 6 11 3 6 1024.2 1024.2 0.0
16/08:00pm 18.0 17.6 13.1 73 2.7 SSW 7 11 4 6 1024.0 1024.0 0.0
16/07:30pm 18.1 17.3 12.8 71 3.0 SSW 9 13 5 7 1023.3 1023.3 0.0
16/07:00pm 18.3 17.2 13.0 71 3.0 S 11 17 6 9 1023.1 1023.1 0.0
16/06:30pm 18.4 17.2 12.8 70 3.1 SSE 11 17 6 9 1022.8 1022.8 0.0
16/06:00pm 18.6 17.5 13.0 70 3.1 S 11 17 6 9 1022.4 1022.4 0.0
16/05:30pm 18.9 16.6 13.1 69 3.3 S 17 24 9 13 1022.0 1022.0 0.0
16/05:00pm 19.2 17.4 13.2 68 3.4 SSE 15 22 8 12 1021.8 1021.8 0.0
16/04:30pm 19.5 18.1 13.4 68 3.5 S 13 20 7 11 1021.3 1021.3 0.0
16/04:00pm 19.9 17.2 13.4 66 3.7 S 20 28 11 15 1020.9 1020.9 0.0
16/03:30pm 21.2 19.2 13.9 63 4.2 S 17 28 9 15 1020.5 1020.5 0.0
16/03:00pm 20.6 17.2 13.8 65 3.9 SSE 24 35 13 19 1020.5 1020.5 0.0
16/02:30pm 21.8 19.3 14.2 62 4.4 SE 20 28 11 15 1020.3 1020.3 0.0
16/02:00pm 22.5 20.3 14.4 60 4.7 SSE 19 28 10 15 1020.3 1020.3 0.0
16/01:30pm 23.5 20.9 13.9 55 5.6 SSE 20 32 11 17 1020.2 1020.2 0.0

Other Formats:

Comma delimited format used in spreadsheet applications
http://www.bom.gov.au/fwo/IDN60801/IDN60801.95929.axf

JavaScript Object Notation format (JSON) in row-major order
http://www.bom.gov.au/fwo/IDN60801/IDN60801.95929.json